Terminal Aerodrome Forecast
Issued by NWS

Home | Current Version | Previous Version | Text Only | Print | Product List | Glossary On
Versions: 1 2 3 4 5 6 7 8 9 10 11 12 13 14
860
FTUS45 KTFX 270520
TAFBZN
TAF
KBZN 270520Z 2706/2812 18009KT P6SM BKN060
      TEMPO 2706/2709 -SHRA BKN030
     FM271200 26012KT P6SM SCT050 BKN100
     FM271800 28012KT P6SM SCT050 BKN080 PROB30 2719/2723 -TSRA
      BKN040CB
     FM280100 VRB06KT P6SM SCT060 BKN080
     FM280900 VRB05KT P6SM SCT080=

USA.gov is the U.S. government's official web portal to all federal, state and local government web resources and services.